Tiempo atmosférico en la estación meteorológica de Vandellós, Tarragona (22 m.)



Fecha
DESCASC
Temp. máxima en grados centígrados (hora)
DESCASC
Temp. mínima en grados centígrados (hora)
DESCASC
Temp. media en grados centígrados
DESCASC
Racha de viento máxima en m/sg (hora)
DESCASC
Velocidad máxima media en intervalos de 10 minutos(hora)
DESCASC
Precipitaciones diarias en mm
DESCASC
Precipitaciones de 00:00 a 06:00 en mm
DESCASC
Precipitaciones de 06:00 a 12:00 en mm
DESCASC
Precipitaciones de 12:00 a 18:00 en mm
DESCASC
Precipitaciones de 18:00 a 24:00 en mm
DESCASC
23-06-2019 26.5 (15:00) 19.2 (06:50) 22.9 5.56 (13:10) 2.5 (18:40) 0 0 0 0 0
22-06-2019 27.8 (11:10) 18.8 (02:50) 23.3 7.78 (18:00) 3.33 (05:50) 0 0 0 0 0
21-06-2019 26.3 (13:20) 18.6 (05:00) 22.4 5.28 (05:20) 2.5 (05:10) 0 0 0 0 0
20-06-2019 26 (13:00) 18.1 (00:00) 22.1 7.5 (18:10) 2.78 (18:20) 0 0 0 0 0
19-06-2019 25.5 (18:20) 17.3 (00:00) 21.4 5 (19:20) 2.5 (19:20) 0 0 0 0 0
18-06-2019 25 (14:10) 17.1 (00:00) 21.1 5 (13:00) 2.22 (13:00) 0 0 0 0 0
17-06-2019 24.4 (14:20) 16.7 (00:00) 20.6 6.11 (17:20) 3.33 (14:40) 0 0 0 0 0
16-06-2019 24.8 (16:00) 16.4 (00:00) 20.6 6.67 (16:00) 3.06 (12:20) 0 0 0 0 0
15-06-2019 27.3 (14:20) 16.4 (00:00) 21.8 18.33 (06:50) 9.72 (06:50) 0 0 0 0 0
14-06-2019 26.2 (11:30) 16.2 (00:00) 21.2 8.61 (11:30) 3.89 (11:30) 0 0 0 0 0
13-06-2019 21.1 (12:50) 13.3 (00:00) 17.2 5.56 (08:50) 2.78 (07:00) 0 0 0 0 0
12-06-2019 21.4 (14:30) 10.8 (00:00) 16.1 8.06 (06:40) 3.33 (09:40) 0.1 0.1 0 0 0
11-06-2019 20.9 (00:00) 11.8 (00:00) 16.3 16.39 (12:50) 8.33 (12:30) 0.6 0 0 0.2 0.4
10-06-2019 28.8 (17:30) 16.2 (00:00) 22.5 18.33 (09:40) 8.89 (08:20) 0 0 0 0 0
09-06-2019 25.5 (17:20) 16.8 (00:00) 21.1 5.56 (18:20) 2.22 (17:30) 0 0 0 0 0
08-06-2019 23 (12:20) 15.3 (00:00) 19.2 6.94 (01:10) 3.06 (01:00) 0 0 0 0 0
07-06-2019 28.4 (17:20) 17 (00:00) 22.7 12.5 (13:30) 5.28 (13:30) 0.1 0 0 0.1 0
06-06-2019 22.7 (14:30) 14.5 (00:00) 18.6 9.72 (16:20) 2.78 (15:10) 0 0 0 0 0
05-06-2019 23.1 (13:30) 18.1 (00:00) 20.6 22.5 (19:20) 9.72 (18:50) 0.1 0 0 0.1 0
04-06-2019 23.6 (12:40) 16 (00:00) 19.8 4.72 (11:00) 2.22 (10:10) 0 0 0 0 0
03-06-2019 23.1 (15:10) 14.4 (00:00) 18.8 4.72 (11:40) 2.22 (10:10) 0 0 0 0 0
02-06-2019 23 (16:00) 14.1 (00:00) 18.6 5.56 (13:00) 3.33 (13:30) 0 0 0 0 0
01-06-2019 23.5 (15:20) 13.6 (00:00) 18.6 5.83 (16:50) 3.61 (13:10) 0 0 0 0 0
31-05-2019 21.8 (15:10) 14.1 (00:00) 17.9 5.28 (13:10) 3.33 (14:40) 0 0 0 0 0
30-05-2019 21.5 (15:40) 13.7 (00:00) 17.6 6.11 (00:30) 3.06 (16:50) 0 0 0 0 0
29-05-2019 26.1 (17:20) 13.7 (00:00) 19.9 21.39 (01:30) 9.17 (01:40) 0 0 0 0 0
28-05-2019 24.9 (16:30) 14.7 (00:00) 19.8 21.11 (07:40) 9.17 (09:20) -- -- -- 0 0
27-05-2019 26.6 (16:00) 15.7 (00:00) 21.2 20.28 (03:30) 9.72 (04:10) -- -- -- -- --
26-05-2019 26.5 (17:30) 14.6 (00:00) 20.6 20.83 (05:10) 10.28 (03:30) -- -- -- -- --
25-05-2019 24.6 (18:10) 13.6 (00:00) 19.1 14.72 (23:59) 7.78 (23:50) -- -- -- -- --

Gráficas

Temp. máximas Temp. mínimas Temp. medias Precipitaciones Rachas de viento máximas Velocidades máximas media en intervalos de 10 minutos

Datos horarios

Fecha y hora oficial Temperatura (ºC) Velocidad del viento (km/h) Dirección del viento Racha (km/h) Dirección de racha Precipitación (mm) Presión (hPa) Tendencia (hPa) Humedad (%)
2019-06-23 23:00:00 20.9 0 Calma 3 Nordeste 0 -- -- 85
2019-06-23 22:00:00 21.8 0 Calma 5 Este 0 -- -- 82
2019-06-23 21:00:00 22.6 0 Calma 7 Sur 0 -- -- 77
2019-06-23 20:00:00 23.7 3 Sudeste 13 Sur 0 -- -- 71
2019-06-23 19:00:00 24.6 7 Sur 15 Sur 0 -- -- 68
2019-06-23 18:00:00 24.7 7 Sur 16 Sur 0 -- -- 66
2019-06-23 17:00:00 25 7 Sur 15 Sudeste 0 -- -- 63
2019-06-23 16:00:00 25.4 8 Sur 19 Sur 0 -- -- 61
2019-06-23 15:00:00 26.5 6 Sur 18 Sur 0 -- -- 59
2019-06-23 14:00:00 24.8 6 Sur 20 Sudeste 0 -- -- 65
2019-06-23 13:00:00 24.4 8 Sudeste 16 Sur 0 -- -- 67
2019-06-23 12:00:00 24.2 7 Este 14 Este 0 -- -- 68
2019-06-23 11:00:00 23.6 7 Este 15 Este 0 -- -- 71
2019-06-23 10:00:00 22.4 7 Este 13 Este 0 -- -- 75
2019-06-23 09:00:00 22.1 6 Este 12 Este 0 -- -- 78
2019-06-23 08:00:00 20.6 4 Nordeste 9 Nordeste 0 -- -- 86
2019-06-23 07:00:00 19.4 2 Nordeste 8 Nordeste 0 -- -- 91
2019-06-23 06:00:00 19.7 2 Nordeste 6 Norte 0 -- -- 90
2019-06-23 05:00:00 20 2 Nordeste 5 Nordeste 0 -- -- 89
2019-06-23 04:00:00 20.5 0 Calma 5 Este 0 -- -- 88
2019-06-23 03:00:00 20.6 0 Calma 6 Sudeste 0 -- -- 87
2019-06-23 02:00:00 20.8 3 Sur 6 Sur 0 -- -- 85
2019-06-23 01:00:00 20.8 0 Calma 4 Sudeste 0 -- -- 85
2019-06-23 00:00:00 20.8 2 Sur 8 Sudoeste 0 -- -- 83
2019-06-22 23:00:00 21.1 5 Sudoeste 9 Sudoeste 0 -- -- 79
2019-06-22 22:00:00 21.5 0 Calma 10 Sudeste 0 -- -- 79
2019-06-22 21:00:00 22.2 6 Sur 18 Sur 0 -- -- 76
2019-06-22 20:00:00 22.8 7 Sur 23 Sur 0 -- -- 69
2019-06-22 19:00:00 23.9 8 Sur 27 Sur 0 -- -- 64
2019-06-22 18:00:00 24.5 11 Sur 28 Sur 0 -- -- 60
2019-06-22 17:00:00 25.2 10 Sur 24 Sur 0 -- -- 59
2019-06-22 16:00:00 26 9 Sur 25 Sur 0 -- -- 57
2019-06-22 15:00:00 26.3 9 Sur 25 Sur 0 -- -- 55
2019-06-22 14:00:00 25.9 8 Sur 23 Sur 0 -- -- 55
2019-06-22 13:00:00 26.6 6 Sur 28 Sur 0 -- -- 53
2019-06-22 12:00:00 25 8 Sur 27 Sur 0 -- -- 50
2019-06-22 11:00:00 26.7 8 Sur 22 Sudoeste 0 -- -- 35
2019-06-22 10:00:00 24.3 3 Este 13 Noroeste 0 -- -- 42
2019-06-22 09:00:00 23 3 Sudoeste 12 Sudoeste 0 -- -- 42
2019-06-22 08:00:00 21 0 Calma 5 Norte 0 -- -- 48
2019-06-22 07:00:00 19.7 3 Norte 19 Noroeste 0 -- -- 47
2019-06-22 06:00:00 20.3 8 Noroeste 24 Noroeste 0 -- -- 45
2019-06-22 05:00:00 20.4 5 Noroeste 24 Oeste 0 -- -- 48
2019-06-22 04:00:00 20.9 7 Noroeste 16 Noroeste 0 -- -- 49
2019-06-22 03:00:00 19.3 0 Calma 9 Nordeste 0 -- -- 62
2019-06-22 02:00:00 19.8 2 Sudoeste 11 Noroeste 0 -- -- 66
2019-06-22 01:00:00 20.3 3 Noroeste 8 Noroeste 0 -- -- 66
2019-06-22 00:00:00 19.3 0 Calma 6 Nordeste 0 -- -- 70
2019-06-21 23:00:00 19.5 0 Calma 5 Nordeste 0 -- -- 78
2019-06-21 22:00:00 20.4 0 Calma 8 Este 0 -- -- 77
2019-06-21 21:00:00 21.5 3 Este 11 Este 0 -- -- 72
2019-06-21 20:00:00 22.5 5 Este 13 Este 0 -- -- 68
2019-06-21 19:00:00 22.7 5 Este 12 Este 0 -- -- 65
2019-06-21 18:00:00 22.7 5 Este 14 Este 0 -- -- 62
2019-06-21 17:00:00 24.2 5 Este 13 Este 0 -- -- 58
2019-06-21 16:00:00 24.6 5 Este 14 Este 0 -- -- 54
2019-06-21 15:00:00 25 4 Sudeste 14 Este 0 -- -- 52
2019-06-21 14:00:00 24.1 5 Sur 16 Sur 0 -- -- 56
2019-06-21 13:00:00 25.1 9 Sur 17 Sur 0 -- -- 55
2019-06-21 12:00:00 25.1 6 Sudeste 18 Este 0 -- -- 52
2019-06-21 11:00:00 25.1 8 Sudeste 15 Sudeste 0 -- -- 53
2019-06-21 10:00:00 23 6 Norte 14 Norte 0 -- -- 55
2019-06-21 09:00:00 22 4 Nordeste 18 Norte 0 -- -- 62
2019-06-21 08:00:00 21.1 4 Norte 18 Nordeste 0 -- -- 67
2019-06-21 07:00:00 19.8 4 Nordeste 18 Norte 0 -- -- 68
2019-06-21 06:00:00 18.9 4 Nordeste 19 Norte 0 -- -- 78
2019-06-21 05:00:00 18.9 5 Nordeste 13 Nordeste 0 -- -- 81
2019-06-21 04:00:00 19 0 Calma 5 Nordeste 0 -- -- 83
2019-06-21 03:00:00 19.2 0 Calma 6 Norte 0 -- -- 83
2019-06-21 02:00:00 19.6 2 Nordeste 10 Nordeste 0 -- -- 81
2019-06-21 01:00:00 19.9 5 Nordeste 14 Nordeste 0 -- -- 78
2019-06-21 00:00:00 20.2 6 Nordeste 16 Norte 0 -- -- 75
2019-06-20 23:00:00 20.2 7 Nordeste 18 Nordeste 0 -- -- 73
2019-06-20 22:00:00 20.3 6 Nordeste 15 Nordeste 0 -- -- 70
2019-06-20 21:00:00 20.8 6 Nordeste 18 Este 0 -- -- 73
2019-06-20 20:00:00 21.4 8 Nordeste 19 Nordeste 0 -- -- 68
2019-06-20 19:00:00 22.3 9 Nordeste 27 Nordeste 0 -- -- 62
2019-06-20 18:00:00 24.3 8 Nordeste 22 Nordeste 0 -- -- 59
2019-06-20 17:00:00 23.9 7 Nordeste 19 Este 0 -- -- 57
2019-06-20 16:00:00 24.1 7 Nordeste 21 Norte 0 -- -- 56
2019-06-20 15:00:00 24.4 6 Este 14 Sudeste 0 -- -- 60
2019-06-20 14:00:00 24.5 6 Este 17 Este 0 -- -- 59
2019-06-20 13:00:00 25.4 6 Este 16 Este 0 -- -- 55
2019-06-20 12:00:00 24.7 7 Este 18 Este 0 -- -- 59
2019-06-20 11:00:00 24 9 Nordeste 21 Este 0 -- -- 64
2019-06-20 10:00:00 22.3 8 Nordeste 18 Nordeste 0 -- -- 72
2019-06-20 09:00:00 21.7 5 Nordeste 16 Este 0 -- -- 74
2019-06-20 08:00:00 20.2 4 Nordeste 9 Nordeste 0 -- -- 81
2019-06-20 07:00:00 18.3 2 Norte 8 Norte 0 -- -- 85
2019-06-20 06:00:00 19 0 Calma 14 Norte 0 -- -- 84
2019-06-20 05:00:00 19.4 5 Nordeste 21 Nordeste 0 -- -- 84
2019-06-20 04:00:00 19.9 8 Nordeste 21 Nordeste 0 -- -- 84
2019-06-20 03:00:00 19.9 7 Nordeste 17 Norte 0 -- -- 87
2019-06-20 02:00:00 19.9 8 Norte 16 Norte 0 -- -- 88
2019-06-20 01:00:00 19.9 7 Nordeste 12 Nordeste 0 -- -- 88
2019-06-20 00:00:00 20.4 4 Norte 12 Nordeste 0 -- -- 86
2019-06-19 23:00:00 20.5 3 Norte 7 Nordeste 0 -- -- 85
2019-06-19 22:00:00 20.5 2 Nordeste 8 Este 0 -- -- 85
2019-06-19 21:00:00 21.4 4 Nordeste 13 Este 0 -- -- 80
2019-06-19 20:00:00 22.6 6 Este 18 Este 0 -- -- 73
2019-06-19 19:00:00 24.6 6 Este 18 Este 0 -- -- 65
2019-06-19 18:00:00 24.6 5 Este 14 Este 0 -- -- 59
2019-06-19 17:00:00 24.3 6 Sudeste 16 Nordeste 0 -- -- 64
2019-06-19 16:00:00 24.8 6 Sudeste 15 Sur 0 -- -- 62
2019-06-19 15:00:00 24.4 8 Sudeste 16 Sur 0 -- -- 62
2019-06-19 14:00:00 24.3 5 Sudeste 15 Sudeste 0 -- -- 64
2019-06-19 13:00:00 23.9 6 Sudeste 15 Sudeste 0 -- -- 63
2019-06-19 12:00:00 23.8 6 Este 17 Sudeste 0 -- -- 64
2019-06-19 11:00:00 23 4 Sudeste 14 Este 0 -- -- 67
2019-06-19 10:00:00 21.5 6 Este 13 Este 0 -- -- 74
2019-06-19 09:00:00 21.1 5 Este 12 Este 0 -- -- 74
2019-06-19 08:00:00 19 4 Nordeste 8 Nordeste 0 -- -- 86
2019-06-19 07:00:00 17.5 4 Nordeste 8 Nordeste 0 -- -- 88
2019-06-19 06:00:00 17.5 5 Nordeste 8 Nordeste 0 -- -- 89
2019-06-19 05:00:00 17.6 4 Nordeste 10 Nordeste 0 -- -- 91
2019-06-19 04:00:00 17.7 5 Nordeste 9 Nordeste 0 -- -- 91
2019-06-19 03:00:00 17.5 5 Nordeste 9 Nordeste 0 -- -- 89
2019-06-19 02:00:00 18.5 4 Nordeste 7 Norte 0 -- -- 89
2019-06-19 01:00:00 18.8 3 Nordeste 7 Nordeste 0 -- -- 87
2019-06-19 00:00:00 18.7 2 Norte 6 Nordeste 0 -- -- 86
2019-06-18 23:00:00 19.1 2 Norte 5 Norte 0 -- -- 84
2019-06-18 22:00:00 20.1 2 Este 8 Este 0 -- -- 81
2019-06-18 21:00:00 20.6 4 Sudeste 9 Sudeste 0 -- -- 78
2019-06-18 20:00:00 21.6 5 Sudeste 12 Este 0 -- -- 72
2019-06-18 19:00:00 22.9 6 Sudeste 14 Sudeste 0 -- -- 62
2019-06-18 18:00:00 22.8 5 Este 14 Este 0 -- -- 70
2019-06-18 17:00:00 23.7 5 Sudeste 14 Sudeste 0 -- -- 65
2019-06-18 16:00:00 24 7 Sudeste 14 Este 0 -- -- 63
2019-06-18 15:00:00 24.3 5 Nordeste 14 Este 0 -- -- 63
2019-06-18 14:00:00 24.3 6 Este 16 Este 0 -- -- 63
2019-06-18 13:00:00 24.3 8 Sudeste 18 Este 0 -- -- 61
2019-06-18 12:00:00 23.5 5 Este 13 Sudeste 0 -- -- 64
2019-06-18 11:00:00 22.4 4 Este 13 Este 0 -- -- 69
2019-06-18 10:00:00 21.3 6 Este 14 Este 0 -- -- 73
2019-06-18 09:00:00 20.3 5 Nordeste 12 Nordeste 0 -- -- 80
2019-06-18 08:00:00 19.3 5 Nordeste 11 Norte 0 -- -- 84
2019-06-18 07:00:00 18 5 Nordeste 12 Norte 0 -- -- 91
2019-06-18 06:00:00 17.4 5 Este 9 Este 0 -- -- 91
2019-06-18 05:00:00 17.2 5 Nordeste 10 Nordeste 0 -- -- 90
2019-06-18 04:00:00 17.2 3 Nordeste 7 Nordeste 0 -- -- 90
2019-06-18 03:00:00 17.8 0 Calma 5 Norte 0 -- -- 89
2019-06-18 02:00:00 18.3 3 Norte 7 Nordeste 0 -- -- 92
2019-06-18 01:00:00 18.2 3 Norte 7 Norte 0 -- -- 92
2019-06-18 00:00:00 18.4 0 Calma 3 Nordeste 0 -- -- 90
2019-06-17 23:00:00 19.1 0 Calma 4 Sur 0 -- -- 89
2019-06-17 22:00:00 19.8 0 Calma 8 Sudeste 0 -- -- 86
2019-06-17 21:00:00 20.5 4 Sudeste 12 Sur 0 -- -- 81
2019-06-17 20:00:00 21.4 8 Sur 16 Sur 0 -- -- 74
2019-06-17 19:00:00 22.7 9 Sur 18 Sur 0 -- -- 68
2019-06-17 18:00:00 23.1 7 Sur 22 Sur 0 -- -- 62
2019-06-17 17:00:00 22.9 11 Sur 19 Sur 0 -- -- 64
2019-06-17 16:00:00 23.6 9 Sur 18 Sur 0 -- -- 64
2019-06-17 15:00:00 23 8 Sur 21 Sur 0 -- -- 66
2019-06-17 14:00:00 22.8 8 Sur 20 Sur 0 -- -- 67
2019-06-17 13:00:00 23.3 9 Sur 20 Sur 0 -- -- 67
2019-06-17 12:00:00 22.4 8 Sur 16 Sudeste 0 -- -- 70
2019-06-17 11:00:00 21.8 8 Sudeste 14 Sudeste 0 -- -- 68
2019-06-17 10:00:00 21.1 4 Este 14 Este 0 -- -- 73
2019-06-17 09:00:00 19.7 4 Nordeste 9 Este 0 -- -- 79
2019-06-17 08:00:00 19.2 3 Nordeste 7 Este 0 -- -- 83
2019-06-17 07:00:00 17 0 Calma 4 Nordeste 0 -- -- 88
2019-06-17 06:00:00 16.9 2 Norte 5 Norte 0 -- -- 89
2019-06-17 05:00:00 16.9 2 Norte 6 Norte 0 -- -- 89
2019-06-17 04:00:00 17.1 3 Norte 9 Nordeste 0 -- -- 88
2019-06-17 03:00:00 17 6 Nordeste 10 Nordeste 0 -- -- 88
2019-06-17 02:00:00 17.6 2 Norte 11 Sudoeste 0 -- -- 86
2019-06-17 01:00:00 18.6 6 Sudoeste 13 Sudoeste 0 -- -- 82
2019-06-17 00:00:00 19.1 5 Sudoeste 12 Sudoeste 0 -- -- 76
2019-06-16 23:00:00 19.4 4 Sudoeste 11 Sudoeste 0 -- -- 77
2019-06-16 22:00:00 20 5 Sur 12 Sur 0 -- -- 74
2019-06-16 21:00:00 20.3 5 Sur 15 Sur 0 -- -- 71
2019-06-16 20:00:00 21.1 6 Sur 21 Sur 0 -- -- 61
2019-06-16 19:00:00 22.1 8 Sur 21 Sur 0 -- -- 60
2019-06-16 18:00:00 23 9 Sur 21 Sur 0 -- -- 58
2019-06-16 17:00:00 23 7 Sur 22 Sur 0 -- -- 59
2019-06-16 16:00:00 24.8 8 Sur 24 Sur 0 -- -- 55
2019-06-16 15:00:00 23.4 8 Sur 19 Sur 0 -- -- 57
2019-06-16 14:00:00 23.9 5 Sur 20 Sur 0 -- -- 57
2019-06-16 13:00:00 22.7 10 Sur 21 Sur 0 -- -- 64
2019-06-16 12:00:00 23.4 9 Sur 19 Sur 0 -- -- 61
2019-06-16 11:00:00 22.3 8 Sur 17 Sur 0 -- -- 60
2019-06-16 10:00:00 21.6 9 Sur 16 Sudeste 0 -- -- 61
2019-06-16 09:00:00 21.4 4 Sur 13 Sudoeste 0 -- -- 58
2019-06-16 08:00:00 18.9 0 Calma 9 Sudoeste 0 -- -- 74
2019-06-16 07:00:00 17.9 4 Sudoeste 13 Oeste 0 -- -- 70
2019-06-16 06:00:00 16.5 4 Sudoeste 9 Sudoeste 0 -- -- 77
2019-06-16 05:00:00 17.1 0 Calma 5 Norte 0 -- -- 76
2019-06-16 04:00:00 17.2 0 Calma 4 Sudoeste 0 -- -- 77
2019-06-16 03:00:00 18.1 0 Calma 6 Nordeste 0 -- -- 76
2019-06-16 02:00:00 18.2 3 Nordeste 10 Nordeste 0 -- -- 81
2019-06-16 01:00:00 18.4 5 Nordeste 16 Nordeste 0 -- -- 82
2019-06-16 00:00:00 18.7 5 Nordeste 22 Nordeste 0 -- -- 85
2019-06-15 23:00:00 18.7 9 Nordeste 24 Norte 0 -- -- 86
2019-06-15 22:00:00 19.2 10 Nordeste 22 Norte 0 -- -- 87
2019-06-15 21:00:00 19.4 9 Nordeste 22 Nordeste 0 -- -- 87
2019-06-15 20:00:00 21.9 8 Nordeste 19 Este 0 -- -- 61
2019-06-15 19:00:00 26.1 6 Sur 22 Sur 0 -- -- 44
2019-06-15 18:00:00 26.3 7 Sur 23 Sudoeste 0 -- -- 42
2019-06-15 17:00:00 25.7 6 Sur 21 Sur 0 -- -- 47
2019-06-15 16:00:00 25.3 6 Sur 21 Sudoeste 0 -- -- 46
2019-06-15 15:00:00 26.3 6 Sudeste 20 Sudeste 0 -- -- 41
2019-06-15 14:00:00 25.5 8 Sudeste 20 Sudeste 0 -- -- 43
2019-06-15 13:00:00 24.9 8 Sudeste 19 Sudeste 0 -- -- 43
2019-06-15 12:00:00 25.7 8 Sudeste 38 Sudoeste 0 -- -- 40
2019-06-15 11:00:00 22.8 14 Noroeste 42 Noroeste 0 -- -- 40
2019-06-15 10:00:00 21.4 24 Noroeste 60 Noroeste 0 -- -- 43
2019-06-15 09:00:00 21.2 31 Noroeste 63 Noroeste 0 -- -- 42
2019-06-15 08:00:00 20.3 32 Noroeste 63 Noroeste 0 -- -- 46
2019-06-15 07:00:00 20.5 34 Noroeste 66 Noroeste 0 -- -- 45
2019-06-15 06:00:00 20.4 2 Este 32 Noroeste 0 -- -- 51
2019-06-15 05:00:00 16.9 4 Este 10 Este 0 -- -- 87
2019-06-15 04:00:00 17 3 Noroeste 7 Norte 0 -- -- 85
2019-06-15 03:00:00 17.2 3 Norte 10 Norte 0 -- -- 85
2019-06-15 02:00:00 17.3 4 Norte 12 Nordeste 0 -- -- 82
2019-06-15 01:00:00 17.3 4 Norte 14 Nordeste 0 -- -- 81
2019-06-15 00:00:00 17.8 4 Norte 10 Nordeste 0 -- -- 81
2019-06-14 23:00:00 18.3 4 Nordeste 9 Nordeste 0 -- -- 78
2019-06-14 22:00:00 19.3 0 Calma 9 Sur 0 -- -- 73
2019-06-14 21:00:00 20.9 3 Sur 14 Sur 0 -- -- 60
2019-06-14 20:00:00 21.3 7 Sur 19 Sudoeste 0 -- -- 60
2019-06-14 19:00:00 22.4 7 Sur 25 Sur 0 -- -- 57
2019-06-14 18:00:00 22.8 9 Sur 23 Sur 0 -- -- 56
2019-06-14 17:00:00 23.5 7 Sur 26 Sur 0 -- -- 55
2019-06-14 16:00:00 23.9 8 Sur 23 Sur 0 -- -- 56
2019-06-14 15:00:00 24.4 6 Sur 28 Sur 0 -- -- 52
2019-06-14 14:00:00 22.9 7 Sur 30 Sudoeste 0 -- -- 53
2019-06-14 13:00:00 24.4 8 Sur 31 Sudeste 0 -- -- 49
2019-06-14 12:00:00 23.9 8 Sur 31 Sur 0 -- -- 43
2019-06-14 11:00:00 23.2 2 Sudeste 21 Noroeste 0 -- -- 45
2019-06-14 10:00:00 23.5 10 Noroeste 24 Norte 0 -- -- 40
2019-06-14 09:00:00 22.4 5 Sudoeste 13 Sudoeste 0 -- -- 44
2019-06-14 08:00:00 20.8 4 Sudoeste 14 Noroeste 0 -- -- 46
2019-06-14 07:00:00 20 4 Sudoeste 10 Sudoeste 0 -- -- 50
2019-06-14 06:00:00 20.6 2 Nordeste 12 Noroeste 0 -- -- 46
2019-06-14 05:00:00 20.9 4 Norte 19 Nordeste 0 -- -- 47
2019-06-14 04:00:00 20.4 9 Nordeste 22 Nordeste 0 -- -- 41
2019-06-14 03:00:00 19.8 9 Nordeste 20 Nordeste 0 -- -- 32
2019-06-14 02:00:00 19 9 Nordeste 21 Nordeste 0 -- -- 36
2019-06-14 01:00:00 17.1 4 Norte 12 Nordeste 0 -- -- 60
2019-06-14 00:00:00 16.4 4 Norte 10 Nordeste 0 -- -- 63
2019-06-13 23:00:00 16.2 4 Nordeste 9 Norte 0 -- -- 67
2019-06-13 22:00:00 17.2 5 Nordeste 13 Nordeste 0 -- -- 64
2019-06-13 21:00:00 18 5 Nordeste 12 Nordeste 0 -- -- 60
2019-06-13 20:00:00 18.8 6 Nordeste 15 Este 0 -- -- 61
2019-06-13 19:00:00 19.1 7 Nordeste 15 Este 0 -- -- 63
2019-06-13 18:00:00 19.9 6 Nordeste 18 Este 0 -- -- 62
2019-06-13 17:00:00 20.1 6 Nordeste 14 Este 0 -- -- 63
2019-06-13 16:00:00 19.9 7 Nordeste 16 Este 0 -- -- 63
2019-06-13 15:00:00 19.5 7 Este 16 Este 0 -- -- 70
2019-06-13 14:00:00 19.7 7 Este 18 Este 0 -- -- 68
2019-06-13 13:00:00 20.9 8 Nordeste 19 Este 0 -- -- 65
2019-06-13 12:00:00 19.3 7 Nordeste 19 Este 0 -- -- 68
2019-06-13 11:00:00 19.4 7 Nordeste 19 Nordeste 0 -- -- 66
2019-06-13 10:00:00 17.6 7 Nordeste 19 Nordeste 0 -- -- 69
2019-06-13 09:00:00 16.9 9 Nordeste 20 Nordeste 0 -- -- 69
2019-06-13 08:00:00 16.2 9 Nordeste 19 Nordeste 0 -- -- 73
2019-06-13 07:00:00 15.8 10 Nordeste 19 Nordeste 0 -- -- 72
2019-06-13 06:00:00 16 6 Nordeste 17 Nordeste 0 -- -- 70
2019-06-13 05:00:00 15.4 5 Norte 12 Nordeste 0 -- -- 70
2019-06-13 04:00:00 14.5 5 Norte 10 Nordeste 0 -- -- 70
2019-06-13 03:00:00 13.8 4 Nordeste 9 Nordeste 0 -- -- 80
2019-06-13 02:00:00 13.6 2 Nordeste 4 Nordeste 0 -- -- 78
2019-06-13 01:00:00 13.7 0 Calma -- -- 0 -- -- 77
2019-06-13 00:00:00 14.4 0 Calma -- -- 0 -- -- 71
2019-06-12 23:00:00 15.2 0 Calma 5 Sudeste 0 -- -- 65
2019-06-12 22:00:00 16.8 0 Calma 7 Sur 0 -- -- 60
2019-06-12 21:00:00 17.4 3 Sur 13 Sur 0 -- -- 53
2019-06-12 20:00:00 18.4 5 Sur 15 Sur 0 -- -- 50
2019-06-12 19:00:00 19.4 6 Sur 15 Sur 0 -- -- 48
2019-06-12 18:00:00 19.8 8 Sur 17 Sur 0 -- -- 46
2019-06-12 17:00:00 20.4 8 Sur 19 Sur 0 -- -- 45
2019-06-12 16:00:00 20.4 9 Sur 21 Sur 0 -- -- 43
2019-06-12 15:00:00 20.3 8 Sur 19 Sur 0 -- -- 42
2019-06-12 14:00:00 20.1 9 Sur 19 Sur 0 -- -- 43
2019-06-12 13:00:00 20.2 8 Este 19 Sur 0 -- -- 40
2019-06-12 12:00:00 19.8 7 Sudeste 17 Sudeste 0 -- -- 40
2019-06-12 11:00:00 18.5 7 Sudeste 23 Oeste 0 -- -- 43
2019-06-12 10:00:00 16.3 10 Noroeste 26 Noroeste 0 -- -- 43
2019-06-12 09:00:00 14.9 5 Noroeste 18 Noroeste 0 -- -- 48
2019-06-12 08:00:00 14.1 4 Sudoeste 13 Sudoeste 0 -- -- 52
2019-06-12 07:00:00 13 2 Oeste 29 Norte 0 -- -- 54
2019-06-12 06:00:00 12.3 2 Sur 15 Sudoeste 0 -- -- 56
2019-06-12 05:00:00 11.4 2 Este 12 Sudoeste 0.1 -- -- 61
2019-06-12 04:00:00 12.9 3 Norte 16 Nordeste 0 -- -- 59
2019-06-12 03:00:00 10.9 0 Calma 8 Noroeste 0 -- -- 87
2019-06-12 02:00:00 11.5 0 Calma 6 Sudoeste 0 -- -- 92
2019-06-12 01:00:00 11.9 0 Calma 6 Nordeste 0 -- -- 90
2019-06-12 00:00:00 11.9 0 Calma 5 Norte 0.1 -- -- 88
2019-06-11 23:00:00 12.7 2 Noroeste 9 Noroeste 0 -- -- 84
2019-06-11 22:00:00 13.4 0 Calma 7 Norte 0.1 -- -- 82
2019-06-11 21:00:00 14.5 4 Norte 11 Norte 0.1 -- -- 74
2019-06-11 20:00:00 14.6 5 Norte 9 Norte 0 -- -- 74
2019-06-11 19:00:00 14.3 3 Norte 12 Nordeste 0.1 -- -- 81
2019-06-11 18:00:00 14.7 13 Norte 42 Noroeste 0 -- -- 62
2019-06-11 17:00:00 15.9 20 Noroeste 50 Noroeste 0 -- -- 55
2019-06-11 16:00:00 16.2 28 Noroeste 58 Noroeste 0 -- -- 55
2019-06-11 15:00:00 16.6 23 Noroeste 50 Noroeste 0.1 -- -- 55
2019-06-11 14:00:00 15.3 27 Noroeste 54 Noroeste 0.1 -- -- 60
2019-06-11 13:00:00 13.2 28 Noroeste 59 Noroeste 0 -- -- 65
2019-06-11 12:00:00 14.9 27 Noroeste 52 Noroeste 0 -- -- 55
2019-06-11 11:00:00 15 24 Noroeste 48 Noroeste 0 -- -- 54
2019-06-11 10:00:00 15.2 17 Noroeste 38 Oeste 0 -- -- 54
2019-06-11 09:00:00 15.6 16 Noroeste 37 Oeste 0 -- -- 52
2019-06-11 08:00:00 15.8 16 Noroeste 40 Noroeste 0 -- -- 48
2019-06-11 07:00:00 16.3 18 Noroeste 41 Noroeste 0 -- -- 45
2019-06-11 06:00:00 17.1 17 Noroeste 38 Noroeste 0 -- -- 43
2019-06-11 05:00:00 18 18 Noroeste 43 Noroeste 0 -- -- 41
2019-06-11 04:00:00 18.1 21 Noroeste 45 Noroeste 0 -- -- 41
2019-06-11 03:00:00 18.7 23 Noroeste 57 Noroeste 0 -- -- 41
2019-06-11 02:00:00 17.1 24 Noroeste 56 Noroeste 0 -- -- 46
2019-06-11 01:00:00 20.3 25 Noroeste 49 Norte 0 -- -- 40
2019-06-11 00:00:00 20.9 23 Noroeste 41 Noroeste 0 -- -- 41
2019-06-10 23:00:00 22.2 15 Noroeste 36 Oeste 0 -- -- 40
2019-06-10 22:00:00 23.5 10 Noroeste 23 Noroeste 0 -- -- 40
2019-06-10 21:00:00 22.2 4 Sur 18 Sudoeste 0 -- -- 52
2019-06-10 20:00:00 23.2 5 Sudoeste 22 Sudoeste 0 -- -- 48
2019-06-10 19:00:00 24.8 8 Sudoeste 30 Sudoeste 0 -- -- 45
2019-06-10 18:00:00 26.2 8 Sur 27 Sur 0 -- -- 38
2019-06-10 17:00:00 27.4 9 Oeste 31 Oeste 0 -- -- 34
2019-06-10 16:00:00 26.4 10 Noroeste 42 Noroeste 0 -- -- 35
2019-06-10 15:00:00 25.6 14 Noroeste 39 Norte 0 -- -- 36
2019-06-10 14:00:00 25.1 18 Noroeste 38 Noroeste 0 -- -- 38
2019-06-10 13:00:00 24 18 Noroeste 42 Noroeste 0 -- -- 40
2019-06-10 12:00:00 21.9 20 Noroeste 46 Noroeste 0 -- -- 43
2019-06-10 11:00:00 20.3 24 Noroeste 59 Oeste 0 -- -- 48
2019-06-10 10:00:00 19.4 26 Noroeste 66 Noroeste 0 -- -- 50
2019-06-10 09:00:00 18.3 28 Noroeste 65 Norte 0 -- -- 53
2019-06-10 08:00:00 17.7 30 Noroeste 64 Noroeste 0 -- -- 54
2019-06-10 07:00:00 17.4 30 Noroeste 63 Noroeste 0 -- -- 55
2019-06-10 06:00:00 17.9 23 Noroeste 57 Noroeste 0 -- -- 55
2019-06-10 05:00:00 18.7 18 Noroeste 49 Noroeste 0 -- -- 55
2019-06-10 04:00:00 18.5 2 Sur 19 Norte 0 -- -- 56
2019-06-10 03:00:00 16.4 0 Calma 5 Sudoeste 0 -- -- 58
2019-06-10 02:00:00 16.5 0 Calma 5 Norte 0 -- -- 56
2019-06-10 01:00:00 16.8 0 Calma 7 Oeste 0 -- -- 54
2019-06-10 00:00:00 17 2 Norte 5 Norte 0 -- -- 62
2019-06-09 23:00:00 17.3 0 Calma 6 Nordeste 0 -- -- 55
2019-06-09 22:00:00 18.6 3 Nordeste 7 Sur 0 -- -- 55
2019-06-09 21:00:00 20.6 4 Sur 17 Sur 0 -- -- 50
2019-06-09 20:00:00 22 7 Sur 15 Sur 0 -- -- 47
2019-06-09 19:00:00 22.3 8 Sur 20 Sudoeste 0 -- -- 44
2019-06-09 18:00:00 23.4 5 Sur 19 Sur 0 -- -- 33
2019-06-09 17:00:00 23.6 5 Sur 20 Sur 0 -- -- 27
2019-06-09 16:00:00 24.5 4 Sur 17 Sur 0 -- -- 27
2019-06-09 15:00:00 23.9 5 Sudeste 15 Sur 0 -- -- 28
2019-06-09 14:00:00 22.6 0 Calma 13 Sur 0 -- -- 31
2019-06-09 13:00:00 23.2 5 Este 17 Nordeste 0 -- -- 28
2019-06-09 12:00:00 23.2 2 Sudeste 10 Sur 0 -- -- 30
2019-06-09 11:00:00 23.1 3 Este 9 Sudeste 0 -- -- 31
2019-06-09 10:00:00 23.1 4 Este 8 Este 0 -- -- 32
2019-06-09 09:00:00 21.3 2 Nordeste 9 Noroeste 0 -- -- 31
2019-06-09 08:00:00 19.4 0 Calma 7 Norte 0 -- -- 33
2019-06-09 07:00:00 18.6 2 Norte 8 Norte 0 -- -- 32
2019-06-09 06:00:00 18.6 0 Calma 6 Norte 0 -- -- 31
2019-06-09 05:00:00 19.3 4 Nordeste 10 Nordeste 0 -- -- 32
2019-06-09 04:00:00 19.7 5 Norte 12 Norte 0 -- -- 32
2019-06-09 03:00:00 18.8 5 Nordeste 11 Nordeste 0 -- -- 36
2019-06-09 02:00:00 18.6 6 Nordeste 13 Norte 0 -- -- 42
2019-06-09 01:00:00 18.5 4 Norte 12 Nordeste 0 -- -- 43
2019-06-09 00:00:00 17.7 4 Nordeste 13 Norte 0 -- -- 50
2019-06-08 23:00:00 17.4 4 Nordeste 7 Nordeste 0 -- -- 54
2019-06-08 22:00:00 17.6 2 Nordeste 7 Este 0 -- -- 58
2019-06-08 21:00:00 18.6 2 Nordeste 8 Nordeste 0 -- -- 55
2019-06-08 20:00:00 19.6 4 Este 8 Este 0 -- -- 53
2019-06-08 19:00:00 20.1 3 Este 11 Este 0 -- -- 51
2019-06-08 18:00:00 20.6 5 Este 12 Este 0 -- -- 52
2019-06-08 17:00:00 21 6 Sudeste 14 Sudeste 0 -- -- 51
2019-06-08 16:00:00 21.8 8 Sudeste 17 Sur 0 -- -- 51
2019-06-08 15:00:00 21.3 8 Sur 18 Sur 0 -- -- 55
2019-06-08 14:00:00 22.1 6 Sur 19 Sur 0 -- -- 52
2019-06-08 13:00:00 21.6 9 Sur 17 Sur 0 -- -- 52
2019-06-08 12:00:00 21.9 6 Sudeste 15 Sudeste 0 -- -- 48
2019-06-08 11:00:00 22.2 7 Sudeste 15 Sudeste 0 -- -- 46
2019-06-08 10:00:00 20.7 3 Nordeste 13 Sudeste 0 -- -- 52
2019-06-08 09:00:00 19.5 6 Sudeste 13 Sudeste 0 -- -- 65
2019-06-08 08:00:00 18 0 Calma 7 Sudoeste 0 -- -- 73
2019-06-08 07:00:00 15.9 0 Calma 8 Sudoeste 0 -- -- 79
2019-06-08 06:00:00 15.5 0 Calma 6 Sudoeste 0 -- -- 84
2019-06-08 05:00:00 16.4 3 Norte 6 Norte 0 -- -- 82
2019-06-08 04:00:00 16.7 2 Nordeste 13 Nordeste 0 -- -- 81
2019-06-08 03:00:00 17.5 6 Nordeste 19 Nordeste 0 -- -- 80
2019-06-08 02:00:00 17.9 9 Nordeste 25 Norte 0 -- -- 78
2019-06-08 01:00:00 18.9 11 Nordeste 23 Nordeste 0 -- -- 57
2019-06-08 00:00:00 20.5 4 Norte 10 Norte 0 -- -- 31
2019-06-07 23:00:00 21.8 5 Norte 14 Norte 0 -- -- 29
2019-06-07 22:00:00 23.1 2 Norte 15 Norte 0 -- -- 28
2019-06-07 21:00:00 24.5 6 Norte 23 Norte 0 -- -- 25
2019-06-07 20:00:00 25.8 7 Oeste 20 Sudoeste 0 -- -- 26
2019-06-07 19:00:00 25 6 Sur 19 Sudeste 0 -- -- 53
2019-06-07 18:00:00 23.1 9 Sur 24 Sur 0 -- -- 57
2019-06-07 17:00:00 28 10 Sudoeste 34 Sudoeste 0 -- -- 26
2019-06-07 16:00:00 25.5 12 Noroeste 32 Noroeste 0 -- -- 31
2019-06-07 15:00:00 26 13 Noroeste 36 Norte 0.1 -- -- 32
2019-06-07 14:00:00 24.6 10 Noroeste 45 Norte 0 -- -- 35
2019-06-07 13:00:00 24.8 5 Oeste 29 Oeste 0 -- -- 37
2019-06-07 12:00:00 22.9 12 Noroeste 23 Sudeste 0 -- -- 41
2019-06-07 11:00:00 22.1 7 Sudeste 15 Sudeste 0 -- -- 67
2019-06-07 10:00:00 20.6 7 Sur 12 Sur 0 -- -- 70
2019-06-07 09:00:00 19.1 3 Sudeste 9 Sudeste 0 -- -- 81
2019-06-07 08:00:00 18.8 3 Sudeste 6 Este 0 -- -- 83
2019-06-07 07:00:00 17.1 0 Calma 4 Nordeste 0 -- -- 89
2019-06-07 06:00:00 17.7 0 Calma 6 Nordeste 0 -- -- 88
2019-06-07 05:00:00 17.5 4 Norte 12 Norte 0 -- -- 88
2019-06-07 04:00:00 17.4 4 Nordeste 10 Nordeste 0 -- -- 90
2019-06-07 03:00:00 17.6 4 Nordeste 15 Nordeste 0 -- -- 89
2019-06-07 02:00:00 17.7 4 Nordeste 10 Nordeste 0 -- -- 89
2019-06-07 01:00:00 18 4 Nordeste 13 Este 0 -- -- 86
2019-06-07 00:00:00 18.2 5 Nordeste 11 Este 0 -- -- 83
2019-06-06 23:00:00 18.2 4 Nordeste 12 Nordeste 0 -- -- 82
2019-06-06 22:00:00 18.2 5 Nordeste 11 Este 0 -- -- 84
2019-06-06 21:00:00 18.3 5 Este 10 Este 0 -- -- 83
2019-06-06 20:00:00 18.9 3 Nordeste 10 Nordeste 0 -- -- 80
2019-06-06 19:00:00 19.3 5 Este 15 Este 0 -- -- 77
2019-06-06 18:00:00 21.3 9 Este 19 Sudeste 0 -- -- 67
2019-06-06 17:00:00 22.4 6 Este 35 Este 0 -- -- 64
2019-06-06 16:00:00 21.5 10 Este 18 Este 0 -- -- 64
2019-06-06 15:00:00 21.5 9 Sudeste 19 Este 0 -- -- 64
2019-06-06 14:00:00 21.4 4 Este 14 Este 0 -- -- 62
2019-06-06 13:00:00 20.4 6 Este 14 Este 0 -- -- 56
2019-06-06 12:00:00 20.7 7 Este 17 Este 0 -- -- 56
2019-06-06 11:00:00 20.4 8 Este 15 Nordeste 0 -- -- 49
2019-06-06 10:00:00 19.6 5 Sudeste 10 Sudeste 0 -- -- 44
2019-06-06 09:00:00 18.8 4 Sudeste 8 Este 0 -- -- 45
2019-06-06 08:00:00 16.7 0 Calma 9 Noroeste 0 -- -- 46
2019-06-06 07:00:00 14.6 0 Calma 17 Noroeste 0 -- -- 47
2019-06-06 06:00:00 16.8 3 Noroeste 14 Noroeste 0 -- -- 43
2019-06-06 05:00:00 15.4 5 Nordeste 17 Sudoeste 0 -- -- 45
2019-06-06 04:00:00 16.9 6 Sudoeste 23 Sudoeste 0 -- -- 44
2019-06-06 03:00:00 17 4 Sur 24 Sur 0 -- -- 43
2019-06-06 02:00:00 17.9 3 Oeste 26 Oeste 0 -- -- 42
2019-06-06 01:00:00 18 5 Sur 31 Este 0 -- -- 41
2019-06-06 00:00:00 18.5 3 Este 19 Sudoeste 0 -- -- 41
2019-06-05 23:00:00 19.5 5 Sudoeste 35 Sudoeste 0 -- -- 39
2019-06-05 22:00:00 20.2 2 Nordeste 48 Oeste 0 -- -- 38
2019-06-05 21:00:00 20.6 20 Noroeste 65 Sudoeste 0 -- -- 38
2019-06-05 20:00:00 21.1 25 Oeste 81 Noroeste 0 -- -- 39
2019-06-05 19:00:00 21.1 23 Noroeste 72 Noroeste 0 -- -- 38
2019-06-05 18:00:00 20.9 14 Noroeste 52 Noroeste 0 -- -- 37
2019-06-05 17:00:00 21.1 18 Noroeste 64 Oeste 0 -- -- 39
2019-06-05 16:00:00 20.4 23 Noroeste 65 Noroeste 0 -- -- 43
2019-06-05 15:00:00 19.1 22 Noroeste 54 Noroeste 0 -- -- 51
2019-06-05 14:00:00 21.2 5 Sudoeste 26 Noroeste 0 -- -- 50
2019-06-05 13:00:00 21.4 8 Este 18 Este 0.1 -- -- 69
2019-06-05 12:00:00 20.5 5 Este 9 Este 0 -- -- 70
2019-06-05 11:00:00 20.3 3 Este 12 Este 0 -- -- 74
2019-06-05 10:00:00 21.1 6 Sudeste 11 Sudeste 0 -- -- 72
2019-06-05 09:00:00 20.4 4 Este 10 Este 0 -- -- 76
2019-06-05 08:00:00 19.1 5 Sudeste 15 Sudeste 0 -- -- 84
2019-06-05 07:00:00 18.9 4 Este 13 Sudeste 0 -- -- 85
2019-06-05 06:00:00 18.9 4 Sudeste 14 Sudeste 0 -- -- 85
2019-06-05 05:00:00 18.7 3 Este 10 Este 0 -- -- 85
2019-06-05 04:00:00 18.8 3 Este 10 Sudeste 0 -- -- 84
2019-06-05 03:00:00 18.8 3 Nordeste 12 Nordeste 0 -- -- 86
2019-06-05 02:00:00 18.8 4 Nordeste 12 Nordeste 0 -- -- 86
2019-06-05 01:00:00 18.7 4 Nordeste 11 Nordeste 0 -- -- 83
2019-06-05 00:00:00 19 5 Nordeste 10 Nordeste 0 -- -- 83
2019-06-04 23:00:00 18.4 4 Nordeste 9 Este 0 -- -- 82
2019-06-04 22:00:00 19.5 3 Nordeste 8 Nordeste 0 -- -- 79
2019-06-04 21:00:00 19.5 2 Nordeste 9 Este 0 -- -- 77
2019-06-04 20:00:00 20.4 4 Sudeste 11 Sudeste 0 -- -- 72
2019-06-04 19:00:00 20.9 3 Este 13 Este 0 -- -- 69
2019-06-04 18:00:00 22.2 5 Este 15 Sudeste 0 -- -- 66
2019-06-04 17:00:00 22.7 5 Sudeste 12 Este 0 -- -- 64
2019-06-04 16:00:00 23 5 Sudeste 15 Sudeste 0 -- -- 62
2019-06-04 15:00:00 21.9 5 Este 14 Sudeste 0 -- -- 63
2019-06-04 14:00:00 22.9 6 Este 16 Sudeste 0 -- -- 60
2019-06-04 13:00:00 23.3 5 Sudeste 14 Este 0 -- -- 58
2019-06-04 12:00:00 22.9 6 Este 15 Este 0 -- -- 62
2019-06-04 11:00:00 21.5 8 Este 17 Este 0 -- -- 70
2019-06-04 10:00:00 20.6 8 Este 16 Este 0 -- -- 73
2019-06-04 09:00:00 20 5 Este 11 Este 0 -- -- 76
2019-06-04 08:00:00 17.8 4 Norte 12 Nordeste 0 -- -- 88
2019-06-04 07:00:00 16.8 4 Norte 9 Nordeste 0 -- -- 91
2019-06-04 06:00:00 16.2 5 Nordeste 9 Nordeste 0 -- -- 89
2019-06-04 05:00:00 16.1 5 Nordeste 9 Nordeste 0 -- -- 89
2019-06-04 04:00:00 16.6 4 Norte 9 Nordeste 0 -- -- 91
2019-06-04 03:00:00 16.3 5 Nordeste 10 Nordeste 0 -- -- 91
2019-06-04 02:00:00 16.6 4 Nordeste 8 Nordeste 0 -- -- 90
2019-06-04 01:00:00 17 2 Nordeste 6 Nordeste 0 -- -- 88
2019-06-04 00:00:00 17.4 3 Nordeste 8 Nordeste 0 -- -- 86
2019-06-03 23:00:00 17.8 2 Norte 6 Norte 0 -- -- 82
2019-06-03 22:00:00 18.4 2 Nordeste 7 Nordeste 0 -- -- 78
2019-06-03 21:00:00 19.7 2 Nordeste 8 Este 0 -- -- 70
2019-06-03 20:00:00 21 3 Este 9 Sudeste 0 -- -- 65
2019-06-03 19:00:00 20.7 4 Este 9 Este 0 -- -- 66
2019-06-03 18:00:00 20.5 4 Este 13 Este 0 -- -- 69
2019-06-03 17:00:00 21.8 4 Este 14 Este 0 -- -- 61
2019-06-03 16:00:00 22.2 4 Sudeste 14 Este 0 -- -- 62
2019-06-03 15:00:00 22.4 6 Este 15 Este 0 -- -- 63
2019-06-03 14:00:00 22.2 6 Sudeste 15 Este 0 -- -- 64
2019-06-03 13:00:00 21.6 5 Sudeste 15 Sudeste 0 -- -- 68
2019-06-03 12:00:00 21.1 7 Sudeste 17 Sudeste 0 -- -- 67
2019-06-03 11:00:00 21.2 6 Este 15 Este 0 -- -- 67
2019-06-03 10:00:00 19.8 6 Este 14 Nordeste 0 -- -- 70
2019-06-03 09:00:00 19.2 5 Este 12 Este 0 -- -- 77
2019-06-03 08:00:00 17.7 4 Nordeste 9 Nordeste 0 -- -- 88
2019-06-03 07:00:00 14.8 2 Nordeste 6 Norte 0 -- -- 92
2019-06-03 06:00:00 14.9 0 Calma 9 Este 0 -- -- 92
2019-06-03 05:00:00 14.8 2 Nordeste 6 Nordeste 0 -- -- 92
2019-06-03 04:00:00 14.8 0 Calma 4 Nordeste 0 -- -- 89
2019-06-03 03:00:00 14.8 0 Calma 3 Norte 0 -- -- 85
2019-06-03 02:00:00 15.2 0 Calma 3 Nordeste 0 -- -- 87
2019-06-03 01:00:00 15.6 0 Calma 4 Norte 0 -- -- 86
2019-06-03 00:00:00 16.3 0 Calma 4 Norte 0 -- -- 83
2019-06-02 23:00:00 16.9 0 Calma 5 Nordeste 0 -- -- 80
2019-06-02 22:00:00 18 3 Nordeste 5 Nordeste 0 -- -- 79
2019-06-02 21:00:00 19.2 2 Sudeste 9 Sur 0 -- -- 73
2019-06-02 20:00:00 20.5 4 Sur 11 Sur 0 -- -- 64
2019-06-02 19:00:00 21.2 7 Sur 15 Sur 0 -- -- 57
2019-06-02 18:00:00 21.9 6 Sur 17 Sur 0 -- -- 55
2019-06-02 17:00:00 22.3 6 Sur 15 Sur 0 -- -- 58
2019-06-02 16:00:00 22.5 5 Sur 17 Sur 0 -- -- 60
2019-06-02 15:00:00 21.6 8 Sur 19 Sur 0 -- -- 62
2019-06-02 14:00:00 22 9 Sur 20 Sur 0 -- -- 64
2019-06-02 13:00:00 20.9 10 Sur 20 Sur 0 -- -- 66
2019-06-02 12:00:00 21.6 7 Sur 13 Sur 0 -- -- 62
2019-06-02 11:00:00 21.4 5 Sudeste 12 Sudeste 0 -- -- 63
2019-06-02 10:00:00 19.4 5 Este 13 Este 0 -- -- 74
2019-06-02 09:00:00 18.6 5 Este 12 Este 0 -- -- 72
2019-06-02 08:00:00 17.4 2 Nordeste 8 Nordeste 0 -- -- 82
2019-06-02 07:00:00 14.4 3 Nordeste 6 Nordeste 0 -- -- 92
2019-06-02 06:00:00 14.5 0 Calma 4 Nordeste 0 -- -- 92
2019-06-02 05:00:00 14.7 0 Calma 5 Nordeste 0 -- -- 90
2019-06-02 04:00:00 15 0 Calma 6 Nordeste 0 -- -- 90
2019-06-02 03:00:00 15 2 Este 5 Norte 0 -- -- 90
2019-06-02 02:00:00 15.4 2 Nordeste 6 Nordeste 0 -- -- 87
2019-06-02 01:00:00 15.4 3 Nordeste 5 Nordeste 0 -- -- 86
2019-06-02 00:00:00 15.8 0 Calma 4 Norte 0 -- -- 83
2019-06-01 23:00:00 16.6 0 Calma 4 Norte 0 -- -- 80
2019-06-01 22:00:00 17.6 0 Calma 8 Sur 0 -- -- 79
2019-06-01 21:00:00 19 5 Sudeste 12 Sudeste 0 -- -- 71
2019-06-01 20:00:00 19.9 6 Sur 15 Sur 0 -- -- 67
2019-06-01 19:00:00 21.8 5 Sur 17 Sur 0 -- -- 57
2019-06-01 18:00:00 21.3 8 Sur 19 Sur 0 -- -- 62
2019-06-01 17:00:00 21.2 12 Sur 21 Sur 0 -- -- 62
2019-06-01 16:00:00 22.6 6 Sur 17 Sur 0 -- -- 59
2019-06-01 15:00:00 22.3 6 Sur 20 Sudeste 0 -- -- 59
2019-06-01 14:00:00 22.2 7 Sur 18 Sur 0 -- -- 63
2019-06-01 13:00:00 21.8 10 Sudeste 17 Sur 0 -- -- 61
2019-06-01 12:00:00 21.6 6 Sudeste 13 Sudeste 0 -- -- 66
2019-06-01 11:00:00 20.6 5 Sudeste 10 Este 0 -- -- 67
2019-06-01 10:00:00 19.4 5 Este 13 Este 0 -- -- 73
2019-06-01 09:00:00 18.5 6 Este 13 Este 0 -- -- 77
2019-06-01 08:00:00 16.9 4 Nordeste 10 Nordeste 0 -- -- 79
2019-06-01 07:00:00 14.1 0 Calma 6 Nordeste 0 -- -- 82
2019-06-01 06:00:00 13.8 0 Calma 4 Nordeste 0 -- -- 86
2019-06-01 05:00:00 14.4 3 Norte 6 Nordeste 0 -- -- 85
2019-06-01 04:00:00 14.5 4 Nordeste 7 Este 0 -- -- 86
2019-06-01 03:00:00 14.8 4 Nordeste 7 Norte 0 -- -- 87
2019-06-01 02:00:00 15 3 Nordeste 7 Nordeste 0 -- -- 86
2019-06-01 01:00:00 15.3 2 Nordeste 5 Norte 0 -- -- 84
2019-06-01 00:00:00 16.2 0 Calma 4 Nordeste 0 -- -- 78
2019-05-31 23:00:00 17.3 0 Calma 8 Sur 0 -- -- 71
2019-05-31 22:00:00 18.7 3 Sur 12 Sudoeste 0 -- -- 65
2019-05-31 21:00:00 19.2 4 Sur 13 Sudoeste 0 -- -- 66
2019-05-31 20:00:00 19.1 6 Sur 12 Sur 0 -- -- 77
2019-05-31 19:00:00 20.2 7 Sur 16 Sur 0 -- -- 71
2019-05-31 18:00:00 20.6 9 Sur 16 Sur 0 -- -- 66
2019-05-31 17:00:00 21.2 8 Sur 17 Sudeste 0 -- -- 64
2019-05-31 16:00:00 21.2 6 Sur 17 Sudeste 0 -- -- 66
2019-05-31 15:00:00 21.3 7 Sur 18 Sudeste 0 -- -- 67
2019-05-31 14:00:00 20.9 6 Sur 19 Sur 0 -- -- 69
2019-05-31 13:00:00 20.1 7 Sur 19 Sur 0 -- -- 70
2019-05-31 12:00:00 19.8 8 Sur 17 Sur 0 -- -- 67
2019-05-31 11:00:00 19.7 6 Sudeste 13 Sur 0 -- -- 67
2019-05-31 10:00:00 19.6 6 Sur 12 Sur 0 -- -- 67
2019-05-31 09:00:00 17.6 3 Este 8 Nordeste 0 -- -- 75
2019-05-31 08:00:00 16.4 0 Calma 5 Nordeste 0 -- -- 82
2019-05-31 07:00:00 14.6 2 Norte 8 Nordeste 0 -- -- 90
2019-05-31 06:00:00 14.3 4 Nordeste 8 Nordeste 0 -- -- 90
2019-05-31 05:00:00 14.9 4 Nordeste 8 Norte 0 -- -- 88
2019-05-31 04:00:00 14.7 4 Nordeste 7 Nordeste 0 -- -- 88
2019-05-31 03:00:00 14.7 3 Nordeste 9 Norte 0 -- -- 89
2019-05-31 02:00:00 14.8 4 Nordeste 8 Nordeste 0 -- -- 87
2019-05-31 01:00:00 15.1 4 Nordeste 9 Nordeste 0 -- -- 86
2019-05-31 00:00:00 15.4 3 Nordeste 6 Nordeste 0 -- -- 86
2019-05-30 23:00:00 15.9 0 Calma 4 Este 0 -- -- 86
2019-05-30 22:00:00 17 0 Calma 7 Sudeste 0 -- -- 81
2019-05-30 21:00:00 18.2 4 Sudoeste 11 Sudeste 0 -- -- 74
2019-05-30 20:00:00 19 4 Sur 13 Sur 0 -- -- 72
2019-05-30 19:00:00 19.9 6 Sur 15 Sur 0 -- -- 70
2019-05-30 18:00:00 20.4 8 Sur 19 Sur 0 -- -- 61
2019-05-30 17:00:00 20.5 9 Sur 19 Sudeste 0 -- -- 66
2019-05-30 16:00:00 20.2 9 Sur 17 Sur 0 -- -- 63
2019-05-30 15:00:00 20.2 8 Sur 19 Sur 0 -- -- 65
2019-05-30 14:00:00 20.1 10 Sur 18 Sur 0 -- -- 61
2019-05-30 13:00:00 20.3 5 Sur 19 Sur 0 -- -- 57
2019-05-30 12:00:00 19.7 5 Sur 19 Este 0 -- -- 51
2019-05-30 11:00:00 19.2 6 Sudeste 15 Sudeste 0 -- -- 56
2019-05-30 10:00:00 18.9 8 Sudeste 14 Este 0 -- -- 53
2019-05-30 09:00:00 17.5 3 Este 15 Norte 0 -- -- 59
2019-05-30 08:00:00 16.2 3 Sudoeste 11 Nordeste 0 -- -- 70
2019-05-30 07:00:00 14.8 4 Noroeste 10 Noroeste 0 -- -- 84
2019-05-30 06:00:00 14.2 0 Calma 9 Sudoeste 0 -- -- 84
2019-05-30 05:00:00 14.2 0 Calma 12 Sudeste 0 -- -- 86
2019-05-30 04:00:00 15.1 5 Sur 17 Sudoeste 0 -- -- 74
2019-05-30 03:00:00 15.1 3 Nordeste 13 Nordeste 0 -- -- 82
2019-05-30 02:00:00 15.5 6 Norte 19 Nordeste 0 -- -- 82
2019-05-30 01:00:00 15.8 10 Norte 22 Nordeste 0 -- -- 79
2019-05-30 00:00:00 16.1 10 Nordeste 27 Nordeste 0 -- -- 76
2019-05-29 23:00:00 16.7 9 Nordeste 22 Nordeste 0 -- -- 76
2019-05-29 22:00:00 17.2 3 Nordeste 13 Sudeste 0 -- -- 68
2019-05-29 21:00:00 18.3 4 Sur 24 Sudoeste 0 -- -- 63
2019-05-29 20:00:00 19.5 8 Sur 29 Sur 0 -- -- 60
2019-05-29 19:00:00 25.4 13 Sudoeste 40 Sudoeste 0 -- -- 31
2019-05-29 18:00:00 25.3 14 Sudoeste 35 Sudoeste 0 -- -- 31
2019-05-29 17:00:00 25.1 9 Noroeste 33 Noroeste 0 -- -- 32
2019-05-29 16:00:00 25.7 13 Sudoeste 40 Sudoeste 0 -- -- 33
2019-05-29 15:00:00 25.2 8 Oeste 31 Sudoeste 0 -- -- 35
2019-05-29 14:00:00 22.8 5 Norte 28 Noroeste 0 -- -- 36
2019-05-29 13:00:00 21.8 8 Oeste 33 Oeste 0 -- -- 39
2019-05-29 12:00:00 20.3 14 Noroeste 42 Noroeste 0 -- -- 41
2019-05-29 11:00:00 18.3 22 Noroeste 48 Noroeste 0 -- -- 44
2019-05-29 10:00:00 16.4 23 Noroeste 51 Noroeste 0 -- -- 48
2019-05-29 09:00:00 15.1 27 Noroeste 57 Noroeste 0 -- -- 52
2019-05-29 08:00:00 14.4 20 Noroeste 51 Oeste 0 -- -- 54
2019-05-29 07:00:00 14.1 18 Noroeste 48 Noroeste 0 -- -- 55
2019-05-29 06:00:00 13.8 20 Noroeste 59 Noroeste 0 -- -- 52
2019-05-29 05:00:00 14.2 30 Noroeste 62 Noroeste 0 -- -- 50
2019-05-29 04:00:00 14.6 28 Noroeste 68 Noroeste 0 -- -- 49
2019-05-29 03:00:00 15.1 26 Noroeste 63 Noroeste 0 -- -- 48
2019-05-29 02:00:00 15.6 22 Noroeste 77 Noroeste 0 -- -- 46
2019-05-29 01:00:00 16.1 22 Noroeste 65 Noroeste 0 -- -- 45
2019-05-29 00:00:00 17 23 Noroeste 60 Oeste 0 -- -- 43
2019-05-28 23:00:00 17.7 18 Noroeste 62 Oeste 0 -- -- 41
2019-05-28 22:00:00 18.8 17 Noroeste 53 Noroeste 0 -- -- 39
2019-05-28 21:00:00 19.8 18 Noroeste 63 Noroeste 0 -- -- 39
2019-05-28 20:00:00 20.7 26 Noroeste 71 Sudoeste 0 -- -- 37
2019-05-28 19:00:00 22.6 18 Noroeste 47 Noroeste 0 -- -- 36
2019-05-28 18:00:00 23.5 5 Noroeste 46 Noroeste 0 -- -- 36
2019-05-28 17:00:00 24.1 5 Oeste 41 Oeste 0 -- -- 36
2019-05-28 16:00:00 23.7 15 Oeste 42 Oeste 0 -- -- 36
2019-05-28 15:00:00 23.4 11 Noroeste 44 Noroeste 0 -- -- 37
2019-05-28 14:00:00 21.4 14 Noroeste 52 Oeste 0 -- -- 40
2019-05-28 13:00:00 20.2 20 Noroeste 67 Noroeste 0 -- -- 42
2019-05-28 12:00:00 19 28 Noroeste 63 Norte 0 -- -- 44
2019-05-28 11:00:00 17.7 28 Noroeste 66 Noroeste 0 -- -- 45
2019-05-28 10:00:00 16.6 30 Noroeste 73 Noroeste 0 -- -- 47
2019-05-28 09:00:00 15.5 28 Noroeste 63 Noroeste 0 -- -- 49
2019-05-28 08:00:00 15.2 24 Noroeste 76 Oeste 0 -- -- 49
2019-05-28 07:00:00 15 22 Noroeste 62 Oeste 0 -- -- 50
2019-05-28 06:00:00 15.4 23 Noroeste 63 Noroeste 0 -- -- 50
2019-05-28 05:00:00 16 20 Noroeste 56 Oeste 0 -- -- 50
2019-05-28 04:00:00 16.4 3 Noroeste 38 Oeste 0 -- -- 50
2019-05-28 03:00:00 16.9 6 Sudeste 29 Sudeste 0 -- -- 48
2019-05-28 02:00:00 18.4 4 Sudeste 33 Sudeste 0 -- -- 48
2019-05-28 01:00:00 19.1 12 Sudeste 33 Noroeste 0 -- -- 51
2019-05-28 00:00:00 20.7 12 Noroeste 39 Oeste 0 -- -- 50
2019-05-27 23:00:00 22 13 Oeste 33 Noroeste 0 -- -- 49
2019-05-27 22:00:00 18.2 5 Sur 23 Sur 0 -- -- 71
2019-05-27 21:00:00 19.1 5 Sur 17 Sur 0 -- -- 66
2019-05-27 20:00:00 18.5 8 Sur 18 Sur 0 -- -- 73
2019-05-27 19:00:00 20.2 7 Sur 23 Sur 0 -- -- 62
2019-05-27 18:00:00 21.7 8 Sur 26 Sur 0 -- -- 55
2019-05-27 17:00:00 22.1 8 Sur 39 Sudeste 0 -- -- 54
2019-05-27 16:00:00 26.3 9 Sudoeste 29 Noroeste 0 -- -- 36
2019-05-27 15:00:00 24.6 14 Noroeste 42 Noroeste 0 -- -- 38
2019-05-27 14:00:00 23.1 22 Noroeste 44 Noroeste 0 -- -- 41
2019-05-27 13:00:00 21.6 22 Noroeste 47 Noroeste 0 -- -- 43
2019-05-27 12:00:00 20.8 21 Noroeste 44 Noroeste 0 -- -- 46
2019-05-27 11:00:00 19.5 22 Noroeste 50 Noroeste 0 -- -- 48
2019-05-27 10:00:00 17.7 26 Noroeste 55 Noroeste 0 -- -- 52
2019-05-27 09:00:00 16.6 27 Noroeste 69 Noroeste 0 -- -- 54
2019-05-27 08:00:00 15.7 29 Noroeste 60 Noroeste 0 -- -- 56
2019-05-27 07:00:00 16 33 Noroeste 62 Noroeste 0 -- -- 54
2019-05-27 06:00:00 16.4 33 Noroeste 72 Noroeste 0 -- -- 54
2019-05-27 05:00:00 16.6 34 Noroeste 69 Noroeste 0 -- -- 54
2019-05-27 04:00:00 16.7 35 Noroeste 73 Noroeste 0 -- -- 53
2019-05-27 03:00:00 17.4 34 Noroeste 71 Noroeste 0 -- -- 51
2019-05-27 02:00:00 18.2 30 Noroeste 69 Noroeste 0 -- -- 49
2019-05-27 01:00:00 18.6 30 Noroeste 64 Noroeste 0 -- -- 48
2019-05-27 00:00:00 19.5 4 Noroeste 28 Noroeste 0 -- -- 49
2019-05-26 23:00:00 17.3 5 Norte 14 Nordeste 0 -- -- 80
2019-05-26 22:00:00 20.4 5 Sur 23 Sudoeste 0 -- -- 49
2019-05-26 21:00:00 21 3 Este 21 Nordeste 0 -- -- 46
2019-05-26 20:00:00 21.5 10 Norte 35 Noroeste 0 -- -- 48
2019-05-26 19:00:00 25.5 13 Noroeste 30 Oeste 0 -- -- 34
2019-05-26 18:00:00 25.7 12 Noroeste 35 Noroeste 0 -- -- 34
2019-05-26 17:00:00 24.7 16 Noroeste 34 Noroeste 0 -- -- 34
2019-05-26 16:00:00 24.9 15 Noroeste 39 Sudoeste 0 -- -- 35
2019-05-26 15:00:00 23.8 14 Noroeste 37 Noroeste 0 -- -- 38
2019-05-26 14:00:00 23.5 14 Noroeste 46 Noroeste 0 -- -- 41
2019-05-26 13:00:00 22.2 13 Oeste 44 Noroeste 0 -- -- 41
2019-05-26 12:00:00 20.7 22 Noroeste 59 Noroeste 0 -- -- 45
2019-05-26 11:00:00 18.5 27 Noroeste 64 Noroeste 0 -- -- 46
2019-05-26 10:00:00 16.7 30 Noroeste 67 Noroeste 0 -- -- 48
2019-05-26 09:00:00 15.3 34 Noroeste 67 Noroeste 0.1 -- -- 51
2019-05-26 08:00:00 14.9 32 Noroeste 66 Noroeste 0 -- -- 51
2019-05-26 07:00:00 14.8 30 Noroeste 64 Noroeste 0 -- -- 53
2019-05-26 06:00:00 14.8 35 Noroeste 75 Noroeste 0 -- -- 53
2019-05-26 05:00:00 15 32 Noroeste 69 Noroeste 0 -- -- 53
2019-05-26 04:00:00 15.3 33 Noroeste 72 Noroeste 0 -- -- 53
2019-05-26 03:00:00 15.9 35 Noroeste 69 Noroeste 0 -- -- 51
2019-05-26 02:00:00 16.6 36 Noroeste 71 Noroeste 0 -- -- 51
2019-05-26 01:00:00 17.3 32 Noroeste 75 Noroeste 0 -- -- 50
2019-05-26 00:00:00 18.6 26 Noroeste 53 Noroeste 0 -- -- 50
2019-05-25 23:00:00 19.6 22 Noroeste 47 Noroeste 0 -- -- 48
2019-05-25 22:00:00 20.6 18 Noroeste 48 Noroeste 0 -- -- 47
2019-05-25 21:00:00 21.3 21 Noroeste 38 Noroeste 0 -- -- 44
2019-05-25 20:00:00 22.6 11 Noroeste 25 Oeste 0 -- -- 44
2019-05-25 19:00:00 22.2 15 Noroeste 35 Noroeste 0 -- -- 42
2019-05-25 18:00:00 24.5 8 Noroeste 22 Noroeste 0 -- -- 41
2019-05-25 17:00:00 21.3 4 Este 26 Noroeste 0 -- -- 51
2019-05-25 16:00:00 22.9 8 Noroeste 23 Noroeste 0 -- -- 41
2019-05-25 15:00:00 22.4 9 Noroeste 30 Noroeste 0 -- -- 43
2019-05-25 14:00:00 20.9 16 Noroeste 33 Noroeste 0 -- -- 45
2019-05-25 13:00:00 20.5 15 Noroeste 36 Noroeste 0 -- -- 47
2019-05-25 12:00:00 19.6 18 Noroeste 37 Noroeste 0 -- -- 51
2019-05-25 11:00:00 17.8 20 Noroeste 42 Noroeste 0.1 -- -- 54
2019-05-25 10:00:00 16.6 23 Noroeste 45 Noroeste 0 -- -- 56
2019-05-25 09:00:00 15.7 22 Noroeste 41 Noroeste 0 -- -- 59
2019-05-25 08:00:00 15.7 9 Noroeste 34 Noroeste 0 -- -- 60
2019-05-25 07:00:00 15.3 13 Noroeste 34 Sudoeste 0 -- -- 61
2019-05-25 06:00:00 14.9 14 Noroeste 36 Noroeste 0 -- -- 64
2019-05-25 05:00:00 14.7 6 Norte 26 Noroeste 0 -- -- 71
2019-05-25 04:00:00 14.1 7 Norte 29 Oeste 0 -- -- 84
2019-05-25 03:00:00 14.2 3 Este 8 Este 0 -- -- 94
2019-05-25 02:00:00 14.2 0 Calma 8 Nordeste 0 -- -- 94
2019-05-25 01:00:00 14.2 4 Nordeste 10 Norte 0.1 -- -- 94
2019-05-25 00:00:00 14.1 4 Nordeste 27 Norte 0 -- -- 94